createdAt,value
2017-07-30T00:00:20.299Z,89.30
2017-07-30T00:02:47.907Z,89.40
2017-07-30T00:05:15.531Z,89.70
2017-07-30T00:07:43.121Z,89.50
2017-07-30T00:10:10.704Z,89.30
2017-07-30T00:12:38.331Z,89.40
2017-07-30T00:15:05.938Z,89.50
2017-07-30T00:17:34.294Z,89.60
2017-07-30T00:20:02.696Z,90.10
2017-07-30T00:22:30.290Z,89.60
2017-07-30T00:24:58.653Z,89.20
2017-07-30T00:27:26.476Z,89.20
2017-07-30T00:29:54.073Z,89.30
2017-07-30T00:32:22.415Z,89.70
2017-07-30T00:34:50.069Z,89.60
2017-07-30T00:37:17.656Z,89.90
2017-07-30T00:39:45.240Z,90.00
2017-07-30T00:42:12.895Z,90.00
2017-07-30T00:44:40.488Z,90.00
2017-07-30T00:47:08.072Z,90.00
2017-07-30T00:49:36.463Z,90.10
2017-07-30T00:52:04.143Z,90.10
2017-07-30T00:54:31.718Z,90.20
2017-07-30T00:57:00.116Z,90.30
2017-07-30T00:59:27.700Z,90.30
2017-07-30T01:01:55.295Z,90.40
2017-07-30T01:04:22.919Z,90.40
2017-07-30T01:06:51.277Z,90.20
2017-07-30T01:09:19.633Z,90.20
2017-07-30T01:11:47.256Z,90.20
2017-07-30T01:14:14.830Z,90.20
2017-07-30T01:16:43.195Z,90.20
2017-07-30T01:19:11.621Z,90.20
2017-07-30T01:21:39.207Z,90.30
2017-07-30T01:24:06.809Z,90.10
2017-07-30T01:26:34.446Z,90.10
2017-07-30T01:29:02.033Z,90.20
2017-07-30T01:31:30.391Z,90.10
2017-07-30T01:33:58.788Z,90.10
2017-07-30T01:36:26.371Z,90.10
2017-07-30T01:38:53.950Z,90.10
2017-07-30T01:41:22.473Z,90.10
2017-07-30T01:43:50.047Z,90.10
2017-07-30T01:46:18.404Z,89.50
2017-07-30T01:48:46.816Z,89.80
2017-07-30T01:51:14.495Z,89.90
2017-07-30T01:53:42.078Z,89.90
2017-07-30T01:56:09.715Z,90.00
2017-07-30T01:58:38.054Z,90.20
2017-07-30T02:01:05.635Z,90.10
2017-07-30T02:03:33.446Z,90.20
2017-07-30T02:06:01.031Z,90.00
2017-07-30T02:08:28.630Z,90.20
2017-07-30T02:10:56.430Z,90.30
2017-07-30T02:13:24.019Z,90.30
2017-07-30T02:15:51.617Z,90.30
2017-07-30T02:18:19.252Z,90.30
2017-07-30T02:20:46.843Z,90.40
2017-07-30T02:23:14.440Z,90.50
2017-07-30T02:25:42.092Z,90.50
2017-07-30T02:28:09.687Z,90.50
2017-07-30T02:30:37.287Z,90.50
2017-07-30T02:33:04.931Z,90.60
2017-07-30T02:35:32.534Z,90.60
2017-07-30T02:38:00.124Z,90.70
2017-07-30T02:40:27.782Z,90.80
2017-07-30T02:42:55.359Z,90.90
2017-07-30T02:45:23.786Z,91.10
2017-07-30T02:47:51.411Z,91.00
2017-07-30T02:50:19.000Z,91.10
2017-07-30T02:52:47.342Z,91.40
2017-07-30T02:55:15.132Z,91.40
2017-07-30T02:57:42.705Z,91.40
2017-07-30T03:00:10.305Z,91.40
2017-07-30T03:02:38.686Z,91.60
2017-07-30T03:05:06.329Z,91.60
2017-07-30T03:07:33.904Z,91.70
2017-07-30T03:10:01.532Z,91.70
2017-07-30T03:12:29.102Z,91.70
2017-07-30T03:14:56.692Z,91.70
2017-07-30T03:17:25.079Z,91.90
2017-07-30T03:19:52.658Z,91.90
2017-07-30T03:22:20.245Z,91.80
2017-07-30T03:24:48.819Z,91.90
2017-07-30T03:27:16.412Z,91.90
2017-07-30T03:29:44.001Z,91.90
2017-07-30T03:32:12.417Z,92.00
2017-07-30T03:34:40.001Z,91.90
2017-07-30T03:37:08.362Z,92.00
2017-07-30T03:39:36.759Z,92.00
2017-07-30T03:42:04.344Z,91.90
2017-07-30T03:44:32.705Z,91.70
2017-07-30T03:47:00.352Z,91.90
2017-07-30T03:49:27.935Z,91.90
2017-07-30T03:51:55.528Z,91.90
2017-07-30T03:54:23.173Z,91.80
2017-07-30T03:56:50.756Z,91.70
2017-07-30T03:59:18.358Z,91.70
2017-07-30T04:01:46.002Z,91.60
2017-07-30T04:04:13.588Z,91.60
2017-07-30T04:06:41.181Z,91.50
2017-07-30T04:09:08.820Z,91.50
2017-07-30T04:11:36.408Z,91.30
2017-07-30T04:14:04.749Z,91.30
2017-07-30T04:16:32.366Z,91.30
2017-07-30T04:18:59.962Z,91.20
2017-07-30T04:21:28.307Z,90.90
2017-07-30T04:23:56.736Z,90.90
2017-07-30T04:26:24.324Z,90.80
2017-07-30T04:28:52.664Z,90.50
2017-07-30T04:31:20.295Z,90.50
2017-07-30T04:33:47.881Z,90.30
2017-07-30T04:36:16.231Z,88.70
2017-07-30T04:38:44.614Z,87.80
2017-07-30T04:41:12.960Z,88.30
2017-07-30T04:43:41.313Z,88.40
2017-07-30T04:46:09.040Z,88.30
2017-07-30T04:48:36.614Z,88.50
2017-07-30T04:51:04.968Z,88.50
2017-07-30T04:53:33.356Z,88.70
2017-07-30T04:56:00.953Z,87.90
2017-07-30T04:58:28.555Z,85.70
2017-07-30T05:00:56.202Z,84.90
2017-07-30T05:03:23.788Z,84.80
2017-07-30T05:05:51.363Z,85.00
2017-07-30T05:08:19.762Z,85.50
2017-07-30T05:10:47.359Z,85.40
2017-07-30T05:13:14.934Z,85.30
2017-07-30T05:15:42.565Z,84.80
2017-07-30T05:18:10.921Z,83.80
2017-07-30T05:20:39.278Z,83.10
2017-07-30T05:23:07.680Z,83.30
2017-07-30T05:25:35.269Z,83.20
2017-07-30T05:28:02.863Z,83.40
2017-07-30T05:30:30.648Z,82.70
2017-07-30T05:32:58.219Z,82.10
2017-07-30T05:35:26.573Z,80.50
2017-07-30T05:37:54.357Z,80.50
2017-07-30T05:40:21.940Z,79.00
2017-07-30T05:42:49.522Z,78.30
2017-07-30T05:45:17.133Z,74.90
2017-07-30T05:47:44.709Z,70.70
2017-07-30T05:50:12.287Z,69.30
2017-07-30T05:52:41.109Z,68.90
2017-07-30T05:55:08.683Z,68.90
2017-07-30T05:57:36.277Z,68.70
2017-07-30T06:00:03.929Z,68.90
2017-07-30T06:02:31.527Z,70.60
2017-07-30T06:04:59.109Z,71.40
2017-07-30T06:07:26.749Z,72.60
2017-07-30T06:09:54.322Z,74.10
2017-07-30T06:12:21.895Z,74.70
2017-07-30T06:14:49.536Z,75.30
2017-07-30T06:17:17.112Z,75.20
2017-07-30T06:19:45.468Z,70.40
2017-07-30T06:22:13.869Z,70.20
2017-07-30T06:24:41.467Z,69.70
2017-07-30T06:27:09.058Z,69.30
2017-07-30T06:29:36.670Z,65.50
2017-07-30T06:32:05.028Z,66.10
2017-07-30T06:34:33.458Z,67.90
2017-07-30T06:37:01.088Z,67.80
2017-07-30T06:39:28.677Z,69.90
2017-07-30T06:41:57.016Z,73.30
2017-07-30T06:44:24.637Z,72.80
2017-07-30T06:46:52.998Z,76.30
2017-07-30T06:49:21.354Z,77.70
2017-07-30T06:51:49.908Z,78.70
2017-07-30T06:54:17.503Z,78.70
2017-07-30T06:56:45.093Z,79.50
2017-07-30T06:59:12.726Z,80.20
2017-07-30T07:01:40.304Z,80.80
2017-07-30T07:04:08.644Z,82.70
2017-07-30T07:06:36.274Z,82.60
2017-07-30T07:09:03.856Z,82.90
2017-07-30T07:11:32.205Z,84.30
2017-07-30T07:13:59.828Z,84.20
2017-07-30T07:16:27.403Z,84.70
2017-07-30T07:18:55.751Z,86.20
2017-07-30T07:21:23.389Z,86.20
2017-07-30T07:23:50.973Z,86.80
2017-07-30T07:26:18.548Z,86.90
2017-07-30T07:28:46.186Z,87.80
2017-07-30T07:31:13.778Z,87.50
2017-07-30T07:33:42.123Z,87.10
2017-07-30T07:36:09.865Z,87.00
2017-07-30T07:38:37.466Z,85.50
2017-07-30T07:41:05.038Z,84.80
2017-07-30T07:43:32.659Z,84.30
2017-07-30T07:46:00.241Z,83.50
2017-07-30T07:48:27.812Z,83.50
2017-07-30T07:50:55.467Z,83.10
2017-07-30T07:53:23.031Z,83.50
2017-07-30T07:55:50.604Z,83.10
2017-07-30T07:58:18.215Z,82.10
2017-07-30T08:00:45.779Z,81.60
2017-07-30T08:03:13.357Z,82.00
2017-07-30T08:05:40.994Z,81.70
2017-07-30T08:08:09.349Z,80.70
2017-07-30T08:10:37.710Z,80.40
2017-07-30T08:13:06.118Z,79.90
2017-07-30T08:15:33.692Z,79.80
2017-07-30T08:18:01.277Z,78.80
2017-07-30T08:20:28.896Z,77.70
2017-07-30T08:22:56.511Z,75.90
2017-07-30T08:25:24.080Z,75.30
2017-07-30T08:27:51.686Z,74.60
2017-07-30T08:30:19.247Z,73.60
2017-07-30T08:32:46.848Z,72.50
2017-07-30T08:35:14.468Z,71.60
2017-07-30T08:37:42.817Z,72.80
2017-07-30T08:40:11.185Z,71.40
2017-07-30T08:42:38.821Z,71.20
2017-07-30T08:45:06.383Z,70.40
2017-07-30T08:47:33.956Z,68.30
2017-07-30T08:50:02.532Z,66.80
2017-07-30T08:52:30.122Z,66.70
2017-07-30T08:54:57.704Z,66.90
2017-07-30T08:57:26.104Z,65.90
2017-07-30T08:59:53.727Z,65.90
2017-07-30T09:02:21.308Z,66.00
2017-07-30T09:04:48.975Z,66.60
2017-07-30T09:07:17.333Z,64.80
2017-07-30T09:09:44.906Z,64.70
2017-07-30T09:12:13.291Z,65.00
2017-07-30T09:14:40.868Z,65.00
2017-07-30T09:17:08.449Z,65.80
2017-07-30T09:19:36.077Z,64.70
2017-07-30T09:22:03.665Z,64.50
2017-07-30T09:24:31.254Z,63.30
2017-07-30T09:26:58.905Z,62.80
2017-07-30T09:29:26.475Z,61.40
2017-07-30T09:31:54.829Z,60.60
2017-07-30T09:34:22.559Z,60.60
2017-07-30T09:36:50.149Z,60.20
2017-07-30T09:39:17.737Z,60.00
2017-07-30T09:41:45.358Z,59.00
2017-07-30T09:44:12.946Z,59.20
2017-07-30T09:46:40.546Z,58.80
2017-07-30T09:49:08.179Z,58.70
2017-07-30T09:51:35.751Z,58.20
2017-07-30T09:54:03.341Z,59.20
2017-07-30T09:56:31.734Z,59.80
2017-07-30T09:58:59.308Z,59.70
2017-07-30T10:01:26.888Z,59.10
2017-07-30T10:03:55.277Z,59.60
2017-07-30T10:06:22.870Z,59.60
2017-07-30T10:08:50.449Z,59.90
2017-07-30T10:11:18.856Z,59.80
2017-07-30T10:13:46.423Z,59.80
2017-07-30T10:16:14.009Z,60.00
2017-07-30T10:18:41.642Z,60.20
2017-07-30T10:21:09.970Z,60.20
2017-07-30T10:23:37.538Z,60.20
2017-07-30T10:26:05.991Z,60.50
2017-07-30T10:28:33.568Z,60.20
2017-07-30T10:31:01.163Z,60.60
2017-07-30T10:33:28.792Z,60.60
2017-07-30T10:35:56.382Z,60.90
2017-07-30T10:38:24.815Z,58.20
2017-07-30T10:40:52.453Z,58.10
2017-07-30T10:43:20.029Z,57.50
2017-07-30T10:45:47.608Z,55.50
2017-07-30T10:48:16.002Z,53.50
2017-07-30T10:50:43.576Z,53.50
2017-07-30T10:53:11.156Z,52.90
2017-07-30T10:55:39.555Z,53.30
2017-07-30T10:58:07.125Z,53.30
2017-07-30T11:00:34.738Z,52.80
2017-07-30T11:03:02.376Z,52.30
2017-07-30T11:05:29.952Z,52.20
2017-07-30T11:07:57.511Z,51.90
2017-07-30T11:10:25.167Z,52.80
2017-07-30T11:12:52.734Z,52.90
2017-07-30T11:15:21.094Z,52.40
2017-07-30T11:17:49.503Z,50.60
2017-07-30T11:20:17.098Z,50.50
2017-07-30T11:22:45.445Z,50.40
2017-07-30T11:25:13.058Z,50.40
2017-07-30T11:27:40.627Z,49.30
2017-07-30T11:30:08.213Z,49.60
2017-07-30T11:32:35.968Z,49.70
2017-07-30T11:35:03.542Z,50.60
2017-07-30T11:37:31.409Z,48.80
2017-07-30T11:39:59.049Z,48.50
2017-07-30T11:42:26.619Z,49.50
2017-07-30T11:44:54.964Z,48.20
2017-07-30T11:47:22.588Z,48.10
2017-07-30T11:49:50.155Z,47.10
2017-07-30T11:52:18.504Z,47.10
2017-07-30T11:54:46.134Z,46.60
2017-07-30T11:57:13.742Z,46.90
2017-07-30T11:59:41.320Z,46.30
2017-07-30T12:02:08.948Z,46.60
2017-07-30T12:04:36.668Z,48.10
2017-07-30T12:07:04.248Z,47.80
2017-07-30T12:09:31.884Z,47.20
2017-07-30T12:11:59.458Z,47.80
2017-07-30T12:14:27.040Z,47.50
2017-07-30T12:16:54.673Z,47.80
2017-07-30T12:19:23.038Z,47.90
2017-07-30T12:21:51.410Z,48.20
2017-07-30T12:24:19.055Z,48.20
2017-07-30T12:26:46.636Z,48.80
2017-07-30T12:29:14.225Z,48.50
2017-07-30T12:31:42.608Z,49.60
2017-07-30T12:34:10.182Z,48.90
2017-07-30T12:36:37.751Z,49.50
2017-07-30T12:39:05.381Z,49.20
2017-07-30T12:41:32.961Z,49.60
2017-07-30T12:44:01.426Z,49.50
2017-07-30T12:46:29.061Z,49.10
2017-07-30T12:48:56.654Z,49.30
2017-07-30T12:51:24.215Z,48.90
2017-07-30T12:53:52.104Z,48.70
2017-07-30T12:56:19.698Z,49.40
2017-07-30T12:58:47.301Z,49.10
2017-07-30T13:01:15.135Z,49.40
2017-07-30T13:03:43.466Z,49.80
2017-07-30T13:06:11.026Z,49.70
2017-07-30T13:08:39.425Z,49.10
2017-07-30T13:11:07.008Z,49.00
2017-07-30T13:13:34.580Z,49.90
2017-07-30T13:16:02.229Z,49.70
2017-07-30T13:18:30.574Z,49.50
2017-07-30T13:20:58.349Z,49.40
2017-07-30T13:23:26.920Z,49.60
2017-07-30T13:25:54.491Z,49.50
2017-07-30T13:28:22.063Z,49.80
2017-07-30T13:30:49.687Z,49.50
2017-07-30T13:33:17.268Z,50.10
2017-07-30T13:35:44.830Z,49.00
2017-07-30T13:38:13.251Z,48.80
2017-07-30T13:40:40.863Z,48.70
2017-07-30T13:43:08.457Z,48.90
2017-07-30T13:45:36.075Z,48.80
2017-07-30T13:48:04.417Z,49.20
2017-07-30T13:50:32.046Z,49.20
2017-07-30T13:52:59.659Z,49.50
2017-07-30T13:55:27.254Z,49.50
2017-07-30T13:57:54.846Z,49.90
2017-07-30T14:00:22.468Z,50.10
2017-07-30T14:02:50.064Z,50.30
2017-07-30T14:05:17.648Z,49.90
2017-07-30T14:07:46.046Z,50.40
2017-07-30T14:10:13.620Z,50.40
2017-07-30T14:12:41.197Z,49.70
2017-07-30T14:15:09.583Z,50.40
2017-07-30T14:17:37.181Z,50.40
2017-07-30T14:20:04.764Z,51.00
2017-07-30T14:22:32.457Z,50.90
2017-07-30T14:25:00.036Z,49.50
2017-07-30T14:27:28.380Z,49.20
2017-07-30T14:29:56.009Z,49.20
2017-07-30T14:32:23.574Z,48.70
2017-07-30T14:34:51.138Z,48.30
2017-07-30T14:37:18.777Z,49.70
2017-07-30T14:39:47.123Z,48.60
2017-07-30T14:42:14.709Z,48.50
2017-07-30T14:44:42.346Z,47.10
2017-07-30T14:47:09.910Z,46.20
2017-07-30T14:49:37.492Z,45.50
2017-07-30T14:52:05.130Z,46.10
2017-07-30T14:54:32.779Z,44.80
2017-07-30T14:57:00.375Z,45.50
2017-07-30T14:59:28.000Z,45.10
2017-07-30T15:01:56.348Z,46.00
2017-07-30T15:04:23.937Z,45.30
2017-07-30T15:06:51.566Z,45.30
2017-07-30T15:09:19.167Z,45.40
2017-07-30T15:11:46.730Z,45.90
2017-07-30T15:14:15.111Z,45.60
2017-07-30T15:16:42.686Z,45.60
2017-07-30T15:19:10.273Z,46.30
2017-07-30T15:21:37.910Z,46.90
2017-07-30T15:24:05.474Z,46.10
2017-07-30T15:26:33.911Z,47.40
2017-07-30T15:29:01.534Z,46.60
2017-07-30T15:31:29.108Z,46.70
2017-07-30T15:33:56.685Z,46.70
2017-07-30T15:36:25.072Z,47.50
2017-07-30T15:38:52.645Z,47.50
2017-07-30T15:41:20.214Z,48.60
2017-07-30T15:43:47.842Z,48.70
2017-07-30T15:46:15.405Z,49.50
2017-07-30T15:48:42.989Z,50.30
2017-07-30T15:51:10.739Z,50.40
2017-07-30T15:53:38.320Z,51.00
2017-07-30T15:56:05.891Z,51.40
2017-07-30T15:58:33.541Z,52.20
2017-07-30T16:01:01.120Z,51.80
2017-07-30T16:03:28.706Z,52.40
2017-07-30T16:05:56.403Z,52.40
2017-07-30T16:08:23.975Z,53.10
2017-07-30T16:10:52.320Z,54.30
2017-07-30T16:13:19.961Z,54.30
2017-07-30T16:15:47.540Z,53.90
2017-07-30T16:18:15.131Z,53.70
2017-07-30T16:20:42.760Z,54.00
2017-07-30T16:23:10.328Z,54.50
2017-07-30T16:25:37.922Z,55.20
2017-07-30T16:28:05.701Z,54.90
2017-07-30T16:30:33.294Z,55.40
2017-07-30T16:33:01.640Z,56.60
2017-07-30T16:35:29.258Z,56.60
2017-07-30T16:37:56.818Z,56.80
2017-07-30T16:40:24.403Z,57.40
2017-07-30T16:42:52.196Z,56.90
2017-07-30T16:45:19.767Z,56.80
2017-07-30T16:47:47.344Z,57.10
2017-07-30T16:50:14.960Z,57.60
2017-07-30T16:52:43.322Z,59.20
2017-07-30T16:55:10.904Z,58.80
2017-07-30T16:57:38.530Z,59.50
2017-07-30T17:00:06.123Z,59.50
2017-07-30T17:02:33.718Z,59.70
2017-07-30T17:05:01.343Z,59.60
2017-07-30T17:07:28.940Z,59.50
2017-07-30T17:09:56.968Z,58.90
2017-07-30T17:12:24.607Z,59.00
2017-07-30T17:14:53.026Z,59.00
2017-07-30T17:17:20.604Z,59.00
2017-07-30T17:19:49.294Z,60.10
2017-07-30T17:22:16.877Z,60.00
2017-07-30T17:24:44.485Z,60.90
2017-07-30T17:27:12.105Z,61.40
2017-07-30T17:29:40.449Z,62.90
2017-07-30T17:32:08.056Z,62.80
2017-07-30T17:34:35.703Z,63.20
2017-07-30T17:37:03.279Z,63.80
2017-07-30T17:39:30.851Z,64.20
2017-07-30T17:41:59.429Z,64.10
2017-07-30T17:44:27.776Z,64.50
2017-07-30T17:46:55.365Z,64.50
2017-07-30T17:49:22.997Z,64.50
2017-07-30T17:51:50.565Z,63.90
2017-07-30T17:54:18.917Z,64.10
2017-07-30T17:56:46.536Z,63.60
2017-07-30T17:59:14.111Z,63.90
2017-07-30T18:01:41.678Z,63.60
2017-07-30T18:04:09.295Z,63.50
2017-07-30T18:06:36.880Z,64.10
2017-07-30T18:09:04.461Z,64.20
2017-07-30T18:11:32.093Z,64.10
2017-07-30T18:13:59.687Z,64.00
2017-07-30T18:16:27.287Z,64.30
2017-07-30T18:18:54.902Z,63.50
2017-07-30T18:21:22.469Z,63.70
2017-07-30T18:23:50.048Z,63.70
2017-07-30T18:26:17.680Z,63.60
2017-07-30T18:28:45.257Z,62.90
2017-07-30T18:31:13.604Z,62.40
2017-07-30T18:33:41.470Z,62.40
2017-07-30T18:36:09.819Z,62.80
2017-07-30T18:38:37.400Z,62.70
2017-07-30T18:41:05.023Z,63.70
2017-07-30T18:43:33.372Z,65.30
2017-07-30T18:46:00.942Z,64.50
2017-07-30T18:48:28.688Z,65.10
2017-07-30T18:50:56.281Z,65.50
2017-07-30T18:53:24.640Z,67.30
2017-07-30T18:55:52.272Z,66.50
2017-07-30T18:58:19.857Z,66.70
2017-07-30T19:00:47.553Z,67.10
2017-07-30T19:03:15.196Z,67.80
2017-07-30T19:05:42.776Z,68.20
2017-07-30T19:08:11.120Z,69.20
2017-07-30T19:10:38.787Z,69.20
2017-07-30T19:13:07.164Z,70.10
2017-07-30T19:15:34.730Z,70.00
2017-07-30T19:18:02.334Z,70.50
2017-07-30T19:20:30.694Z,71.30
2017-07-30T19:22:59.022Z,72.60
2017-07-30T19:25:26.638Z,71.70
2017-07-30T19:27:54.207Z,72.20
2017-07-30T19:30:21.775Z,72.50
2017-07-30T19:32:49.392Z,72.90
2017-07-30T19:35:16.954Z,73.10
2017-07-30T19:37:44.538Z,73.60
2017-07-30T19:40:12.392Z,74.10
2017-07-30T19:42:39.968Z,74.40
2017-07-30T19:45:07.544Z,74.90
2017-07-30T19:47:35.189Z,75.10
2017-07-30T19:50:02.767Z,75.60
2017-07-30T19:52:30.359Z,75.90
2017-07-30T19:54:58.765Z,76.00
2017-07-30T19:57:26.356Z,76.00
2017-07-30T19:59:53.932Z,76.00
2017-07-30T20:02:21.556Z,75.90
2017-07-30T20:04:49.901Z,75.90
2017-07-30T20:07:17.484Z,75.90
2017-07-30T20:09:45.322Z,75.90
2017-07-30T20:12:13.672Z,75.90
2017-07-30T20:14:42.025Z,76.00
2017-07-30T20:17:09.677Z,75.90
2017-07-30T20:19:38.020Z,76.10
2017-07-30T20:22:05.628Z,76.00
2017-07-30T20:24:33.263Z,76.30
2017-07-30T20:27:00.954Z,76.50
2017-07-30T20:29:28.544Z,76.70
2017-07-30T20:31:56.198Z,76.80
2017-07-30T20:34:23.762Z,77.10
2017-07-30T20:36:51.322Z,77.20
2017-07-30T20:39:18.937Z,77.60
2017-07-30T20:41:46.521Z,77.80
2017-07-30T20:44:14.109Z,77.90
2017-07-30T20:46:41.802Z,78.20
2017-07-30T20:49:09.399Z,78.20
2017-07-30T20:51:36.984Z,78.50
2017-07-30T20:54:05.366Z,78.80
2017-07-30T20:56:32.949Z,78.60
2017-07-30T20:59:00.523Z,78.90
2017-07-30T21:01:28.153Z,79.00
2017-07-30T21:03:55.723Z,78.80
2017-07-30T21:06:24.059Z,79.50
2017-07-30T21:08:51.966Z,79.30
2017-07-30T21:11:19.548Z,79.30
2017-07-30T21:13:47.127Z,79.50
2017-07-30T21:16:15.519Z,79.80
2017-07-30T21:18:43.086Z,79.80
2017-07-30T21:21:10.662Z,79.70
2017-07-30T21:23:39.263Z,80.20
2017-07-30T21:26:06.870Z,79.80
2017-07-30T21:28:34.456Z,80.10
2017-07-30T21:31:02.105Z,80.40
2017-07-30T21:33:29.696Z,80.50
2017-07-30T21:35:57.280Z,80.50
2017-07-30T21:38:24.903Z,80.70
2017-07-30T21:40:53.247Z,80.90
2017-07-30T21:43:20.838Z,80.70
2017-07-30T21:45:48.469Z,80.90
2017-07-30T21:48:16.049Z,81.20
2017-07-30T21:50:43.650Z,81.90
2017-07-30T21:53:11.270Z,81.30
2017-07-30T21:55:38.880Z,81.60
2017-07-30T21:58:06.469Z,81.90
2017-07-30T22:00:34.104Z,82.10
2017-07-30T22:03:02.462Z,82.50
2017-07-30T22:05:30.804Z,82.50
2017-07-30T22:07:58.440Z,82.50
2017-07-30T22:10:26.021Z,82.50
2017-07-30T22:12:53.594Z,82.70
2017-07-30T22:15:21.207Z,82.70
2017-07-30T22:17:48.788Z,82.80
2017-07-30T22:20:16.368Z,83.10
2017-07-30T22:22:44.004Z,83.00
2017-07-30T22:25:11.586Z,83.10
2017-07-30T22:27:39.222Z,83.10
2017-07-30T22:30:07.606Z,83.30
2017-07-30T22:32:35.257Z,83.20
2017-07-30T22:35:03.045Z,83.10
2017-07-30T22:37:30.669Z,83.30
2017-07-30T22:39:58.266Z,83.30
2017-07-30T22:42:26.616Z,83.50
2017-07-30T22:44:55.032Z,83.60
2017-07-30T22:47:22.638Z,83.50
2017-07-30T22:49:50.983Z,83.60
2017-07-30T22:52:18.612Z,83.50
2017-07-30T22:54:46.206Z,83.90
2017-07-30T22:57:13.789Z,84.40
2017-07-30T22:59:41.412Z,84.30
2017-07-30T23:02:08.993Z,84.40
2017-07-30T23:04:36.558Z,84.30
2017-07-30T23:07:04.966Z,84.50
2017-07-30T23:09:32.548Z,84.50
2017-07-30T23:12:00.132Z,84.50
2017-07-30T23:14:27.751Z,84.60
2017-07-30T23:16:56.089Z,85.00
2017-07-30T23:19:23.649Z,84.90
2017-07-30T23:21:51.274Z,85.20
2017-07-30T23:24:18.855Z,85.50
2017-07-30T23:26:47.214Z,85.50
2017-07-30T23:29:15.608Z,85.40
2017-07-30T23:31:43.203Z,85.30
2017-07-30T23:34:10.770Z,85.40
2017-07-30T23:36:39.178Z,85.20
2017-07-30T23:39:06.759Z,85.10
2017-07-30T23:41:34.341Z,85.10
2017-07-30T23:44:02.050Z,85.10
2017-07-30T23:46:30.650Z,85.10
2017-07-30T23:48:58.996Z,85.20
2017-07-30T23:51:26.672Z,85.10
2017-07-30T23:53:54.274Z,85.20
2017-07-30T23:56:21.866Z,85.30
2017-07-30T23:58:49.519Z,85.10
